Torbat-Heydarieh, Iran
Current Conditions -  °F | °C
As of 6:00 PM on Saturday 22 Nov 2014 (Local Time) from OIMM Reporting Station
Clear Clear  
Wind Chill: 50°   Ceiling: Unl
Heat Index: 50°   Visibility: 4mi
Dew Point: 37°   Wind: 7mph
Humidity: 62%   Direction: 180°S
Pressure: 30"   Gusts: NA
Location:  35.27°N, 59.22°E
Report Text: OIMM 221500Z 18006KT 7000 NSC 10/03 Q1016 A3001
Loading
Personal Weather Stations






























Interactive Weather Map New forecast layout! Learn more

10-Day Weather Forecast

Advertisements
Track Severe Weather on mobile